createdAt,value
2022-07-26T00:01:01.961Z,2.75
2022-07-26T00:05:58.561Z,2.95
2022-07-26T00:10:54.973Z,3.53
2022-07-26T00:15:51.799Z,2.70
2022-07-26T00:20:48.380Z,2.92
2022-07-26T00:25:45.025Z,2.80
2022-07-26T00:30:41.334Z,2.65
2022-07-26T00:35:37.584Z,2.72
2022-07-26T00:40:33.914Z,2.58
2022-07-26T00:45:30.207Z,2.22
2022-07-26T00:50:26.539Z,2.22
2022-07-26T00:55:22.902Z,1.95
2022-07-26T01:00:20.961Z,1.88
2022-07-26T01:05:17.247Z,4.18
2022-07-26T01:10:13.591Z,2.45
2022-07-26T01:15:10.723Z,1.88
2022-07-26T01:20:08.675Z,1.67
2022-07-26T01:25:05.680Z,2.33
2022-07-26T01:30:01.966Z,1.90
2022-07-26T01:34:58.193Z,2.20
2022-07-26T01:39:54.456Z,2.15
2022-07-26T01:44:50.728Z,2.38
2022-07-26T01:49:47.011Z,2.25
2022-07-26T01:54:43.246Z,2.75
2022-07-26T01:59:39.534Z,2.10
2022-07-26T02:04:54.478Z,2.38
2022-07-26T02:09:50.758Z,2.45
2022-07-26T02:14:47.056Z,3.30
2022-07-26T02:19:43.555Z,2.33
2022-07-26T02:24:39.895Z,2.72
2022-07-26T02:29:36.164Z,2.47
2022-07-26T02:34:34.032Z,2.63
2022-07-26T02:39:30.531Z,3.10
2022-07-26T02:44:27.335Z,2.67
2022-07-26T02:49:23.546Z,2.35
2022-07-26T02:54:19.840Z,3.28
2022-07-26T02:59:16.089Z,3.22
2022-07-26T03:04:12.380Z,2.33
2022-07-26T03:09:08.645Z,2.75
2022-07-26T03:14:05.420Z,2.17
2022-07-26T03:19:01.891Z,2.50
2022-07-26T03:23:58.149Z,2.60
2022-07-26T03:28:54.727Z,2.30
2022-07-26T03:33:50.955Z,2.05
2022-07-26T03:38:47.213Z,2.22
2022-07-26T03:43:43.459Z,2.75
2022-07-26T03:48:39.706Z,2.45
2022-07-26T03:53:36.022Z,3.28
2022-07-26T03:58:32.245Z,2.55
2022-07-26T04:03:28.507Z,2.75
2022-07-26T04:08:25.231Z,2.45
2022-07-26T04:13:23.901Z,2.80
2022-07-26T04:18:20.344Z,2.70
2022-07-26T04:23:16.711Z,2.78
2022-07-26T04:28:13.005Z,3.60
2022-07-26T04:33:09.751Z,2.55
2022-07-26T04:38:06.056Z,2.90
2022-07-26T04:43:02.511Z,2.83
2022-07-26T04:47:58.771Z,2.92
2022-07-26T04:52:55.144Z,2.63
2022-07-26T04:57:51.447Z,2.40
2022-07-26T05:02:49.255Z,2.13
2022-07-26T05:07:46.598Z,1.77
2022-07-26T05:12:43.011Z,1.77
2022-07-26T05:17:39.714Z,1.60
2022-07-26T05:22:36.762Z,1.63
2022-07-26T05:27:33.031Z,2.08
2022-07-26T05:32:29.342Z,1.60
2022-07-26T05:37:25.771Z,1.60
2022-07-26T05:42:22.027Z,2.38
2022-07-26T05:47:18.744Z,1.80
2022-07-26T05:52:14.986Z,1.73
2022-07-26T05:57:11.212Z,3.30
2022-07-26T06:02:08.431Z,2.40
2022-07-26T06:07:05.199Z,2.35
2022-07-26T06:12:01.500Z,2.00
2022-07-26T06:16:57.958Z,2.72
2022-07-26T06:21:54.215Z,2.30
2022-07-26T06:26:56.826Z,2.30
2022-07-26T06:31:54.471Z,2.15
2022-07-26T06:36:50.786Z,2.45
2022-07-26T06:41:47.134Z,2.80
2022-07-26T06:46:43.371Z,2.78
2022-07-26T06:51:39.752Z,2.55
2022-07-26T06:56:35.996Z,2.13
2022-07-26T07:01:57.477Z,2.88
2022-07-26T07:06:48.479Z,2.28
2022-07-26T07:11:46.132Z,1.98
2022-07-26T07:16:45.242Z,1.85
2022-07-26T07:21:41.564Z,1.13
2022-07-26T07:26:37.799Z,1.15
2022-07-26T07:31:48.239Z,1.52
2022-07-26T07:36:45.612Z,1.95
2022-07-26T07:41:44.038Z,1.77
2022-07-26T07:46:40.352Z,1.65
2022-07-26T07:51:36.890Z,0.70
2022-07-26T07:56:33.540Z,0.68
2022-07-26T08:01:39.422Z,0.85
2022-07-26T08:06:37.170Z,0.90
2022-07-26T08:11:34.221Z,1.52
2022-07-26T08:16:30.835Z,0.98
2022-07-26T08:21:28.211Z,0.60
2022-07-26T08:26:25.444Z,0.80
2022-07-26T08:31:21.834Z,1.25
2022-07-26T08:36:18.173Z,1.20
2022-07-26T08:41:14.431Z,1.65
2022-07-26T08:46:11.668Z,1.77
2022-07-26T08:51:11.117Z,2.08
2022-07-26T08:56:07.992Z,1.42
2022-07-26T09:01:05.673Z,0.93
2022-07-26T09:06:31.077Z,0.60
2022-07-26T09:11:28.724Z,0.65
2022-07-26T09:16:25.609Z,1.05
2022-07-26T09:21:29.051Z,0.63
2022-07-26T09:26:25.702Z,1.15
2022-07-26T09:31:22.671Z,1.63
2022-07-26T09:36:19.285Z,0.60
2022-07-26T09:41:27.131Z,0.70
2022-07-26T09:46:26.021Z,0.90
2022-07-26T09:51:35.111Z,0.85
2022-07-26T09:56:45.254Z,0.90
2022-07-26T10:01:41.947Z,1.10
2022-07-26T10:06:38.501Z,1.40
2022-07-26T10:11:55.401Z,1.17
2022-07-26T10:16:51.649Z,1.00
2022-07-26T10:21:47.899Z,1.23
2022-07-26T10:26:45.546Z,1.00
2022-07-26T10:31:46.103Z,1.40
2022-07-26T10:36:42.490Z,1.45
2022-07-26T10:41:43.147Z,1.50
2022-07-26T10:46:55.618Z,2.08
2022-07-26T10:56:48.184Z,1.40
2022-07-26T11:01:45.335Z,2.33
2022-07-26T11:06:41.818Z,1.75
2022-07-26T11:11:38.564Z,2.38
2022-07-26T11:16:43.159Z,1.95
2022-07-26T11:21:41.138Z,1.98
2022-07-26T11:26:44.080Z,2.45
2022-07-26T11:31:55.382Z,2.33
2022-07-26T11:36:53.434Z,2.10
2022-07-26T11:41:50.754Z,2.47
2022-07-26T11:46:47.915Z,2.28
2022-07-26T11:51:50.233Z,2.90
2022-07-26T11:57:04.878Z,2.70
2022-07-26T12:02:02.375Z,2.55
2022-07-26T12:06:59.334Z,3.08
2022-07-26T12:11:55.665Z,3.30
2022-07-26T12:16:51.920Z,2.72
2022-07-26T12:21:50.909Z,2.53
2022-07-26T12:27:03.539Z,2.47
2022-07-26T12:32:01.153Z,2.58
2022-07-26T12:37:17.758Z,2.03
2022-07-26T12:42:21.381Z,3.05
2022-07-26T12:47:17.764Z,2.28
2022-07-26T12:52:15.152Z,3.15
2022-07-26T12:57:11.415Z,2.80
2022-07-26T13:02:07.717Z,2.38
2022-07-26T13:07:04.655Z,3.45
2022-07-26T13:12:01.794Z,2.50
2022-07-26T13:16:58.129Z,2.42
2022-07-26T13:21:57.827Z,2.25
2022-07-26T13:26:54.387Z,2.85
2022-07-26T13:31:51.762Z,2.42
2022-07-26T13:36:48.030Z,2.13
2022-07-26T13:41:44.645Z,2.70
2022-07-26T13:46:41.030Z,2.65
2022-07-26T13:51:56.725Z,2.72
2022-07-26T13:56:53.327Z,2.80
2022-07-26T14:01:49.822Z,2.95
2022-07-26T14:06:46.287Z,2.25
2022-07-26T14:11:42.767Z,2.60
2022-07-26T14:16:39.330Z,2.50
2022-07-26T14:21:38.603Z,2.15
2022-07-26T14:26:55.454Z,2.60
2022-07-26T14:31:55.115Z,2.40
2022-07-26T14:36:51.397Z,2.30
2022-07-26T14:41:47.643Z,3.00
2022-07-26T14:46:45.445Z,3.10
2022-07-26T14:51:41.702Z,3.05
2022-07-26T14:56:37.965Z,2.85
2022-07-26T15:01:34.323Z,2.45
2022-07-26T15:06:30.653Z,3.28
2022-07-26T15:11:26.915Z,3.17
2022-07-26T15:16:23.345Z,3.17
2022-07-26T15:21:19.639Z,4.13
2022-07-26T15:26:16.103Z,3.15
2022-07-26T15:31:12.352Z,3.35
2022-07-26T15:36:08.601Z,3.30
2022-07-26T15:41:04.863Z,2.88
2022-07-26T15:46:01.192Z,3.00
2022-07-26T15:51:01.634Z,3.65
2022-07-26T15:55:58.989Z,3.90
2022-07-26T16:00:55.669Z,3.25
2022-07-26T16:05:51.961Z,3.60
2022-07-26T16:10:48.247Z,3.53
2022-07-26T16:15:44.687Z,3.22
2022-07-26T16:20:41.865Z,4.03
2022-07-26T16:25:38.117Z,3.22
2022-07-26T16:30:36.799Z,3.55
2022-07-26T16:35:33.051Z,3.17
2022-07-26T16:40:29.398Z,3.97
2022-07-26T16:45:25.851Z,3.42
2022-07-26T16:50:27.079Z,3.65
2022-07-26T16:55:24.527Z,2.67
2022-07-26T17:00:22.131Z,3.00
2022-07-26T17:05:18.496Z,3.17
2022-07-26T17:10:15.882Z,3.00
2022-07-26T17:15:12.182Z,4.00
2022-07-26T17:20:08.717Z,3.47
2022-07-26T17:25:06.158Z,2.70
2022-07-26T17:30:06.825Z,3.10
2022-07-26T17:35:04.681Z,3.33
2022-07-26T17:40:01.580Z,3.00
2022-07-26T17:44:59.771Z,2.60
2022-07-26T17:49:57.142Z,2.97
2022-07-26T17:54:57.788Z,3.00
2022-07-26T17:59:54.062Z,3.38
2022-07-26T18:04:50.643Z,3.50
2022-07-26T18:09:46.939Z,2.90
2022-07-26T18:14:43.192Z,3.92
2022-07-26T18:19:39.425Z,3.60
2022-07-26T18:24:35.677Z,2.97
2022-07-26T18:29:32.399Z,3.50
2022-07-26T18:34:28.799Z,3.30
2022-07-26T18:39:25.026Z,3.13
2022-07-26T18:44:28.984Z,2.22
2022-07-26T18:49:30.785Z,3.20
2022-07-26T18:54:27.944Z,2.30
2022-07-26T18:59:24.185Z,2.50
2022-07-26T19:04:21.672Z,2.38
2022-07-26T19:09:18.228Z,2.45
2022-07-26T19:14:14.546Z,1.83
2022-07-26T19:19:11.234Z,2.22
2022-07-26T19:24:07.721Z,2.10
2022-07-26T19:29:04.065Z,2.10
2022-07-26T19:34:00.363Z,2.28
2022-07-26T19:38:57.416Z,2.17
2022-07-26T19:43:53.775Z,2.05
2022-07-26T19:48:50.400Z,2.28
2022-07-26T19:53:46.724Z,2.03
2022-07-26T19:58:43.018Z,1.50
2022-07-26T20:03:39.245Z,1.30
2022-07-26T20:08:35.544Z,1.30
2022-07-26T20:13:31.855Z,1.38
2022-07-26T20:18:30.645Z,1.27
2022-07-26T20:23:28.711Z,1.80
2022-07-26T20:28:24.937Z,1.60
2022-07-26T20:33:21.494Z,1.70
2022-07-26T20:38:20.784Z,1.65
2022-07-26T20:43:17.298Z,1.52
2022-07-26T20:48:13.591Z,2.67
2022-07-26T20:53:09.843Z,2.67
2022-07-26T20:58:06.190Z,2.58
2022-07-26T21:03:02.499Z,2.88
2022-07-26T21:07:59.774Z,3.08
2022-07-26T21:13:00.867Z,1.67
2022-07-26T21:17:57.272Z,2.25
2022-07-26T21:23:03.420Z,2.65
2022-07-26T21:28:04.754Z,1.48
2022-07-26T21:33:00.976Z,1.85
2022-07-26T21:37:57.208Z,2.58
2022-07-26T21:42:53.432Z,2.60
2022-07-26T21:47:49.664Z,2.20
2022-07-26T21:52:45.975Z,1.75
2022-07-26T21:57:44.329Z,1.80
2022-07-26T22:02:40.631Z,2.15
2022-07-26T22:07:36.901Z,1.50
2022-07-26T22:12:33.156Z,2.20
2022-07-26T22:17:29.399Z,2.08
2022-07-26T22:22:25.672Z,1.27
2022-07-26T22:27:21.919Z,2.38
2022-07-26T22:32:18.212Z,2.22
2022-07-26T22:37:14.460Z,1.67
2022-07-26T22:42:15.648Z,1.55
2022-07-26T22:47:12.353Z,1.55
2022-07-26T22:52:08.630Z,1.95
2022-07-26T22:57:04.896Z,1.23
2022-07-26T23:02:01.184Z,1.75
2022-07-26T23:06:57.461Z,1.40
2022-07-26T23:11:54.972Z,2.10
2022-07-26T23:16:51.338Z,1.40
2022-07-26T23:21:47.612Z,2.17
2022-07-26T23:26:43.900Z,2.13
2022-07-26T23:31:40.264Z,1.50
2022-07-26T23:36:36.646Z,1.45
2022-07-26T23:41:32.996Z,2.03
2022-07-26T23:46:29.297Z,1.58
2022-07-26T23:51:25.999Z,1.75
2022-07-26T23:56:22.812Z,2.60
